createdAt,value
2023-04-06T00:00:23.841Z,84.31
2023-04-06T00:02:32.213Z,84.75
2023-04-06T00:04:40.402Z,84.32
2023-04-06T00:06:48.814Z,84.46
2023-04-06T00:08:59.948Z,84.47
2023-04-06T00:11:08.258Z,83.20
2023-04-06T00:13:16.380Z,82.06
2023-04-06T00:15:24.625Z,83.29
2023-04-06T00:17:33.112Z,83.98
2023-04-06T00:19:41.130Z,84.37
2023-04-06T00:21:49.196Z,83.66
2023-04-06T00:24:00.259Z,83.54
2023-04-06T00:26:08.542Z,84.11
2023-04-06T00:28:16.687Z,84.53
2023-04-06T00:30:27.521Z,84.07
2023-04-06T00:32:35.534Z,83.69
2023-04-06T00:34:43.660Z,82.51
2023-04-06T00:36:51.864Z,82.32
2023-04-06T00:39:28.716Z,83.00
2023-04-06T00:41:56.889Z,82.83
2023-04-06T00:44:14.212Z,83.05
2023-04-06T00:46:22.362Z,83.36
2023-04-06T00:48:32.353Z,83.56
2023-04-06T00:50:41.905Z,82.23
2023-04-06T00:52:50.069Z,83.16
2023-04-06T00:55:02.920Z,83.97
2023-04-06T00:57:11.442Z,84.70
2023-04-06T00:59:20.048Z,84.71
2023-04-06T01:01:29.902Z,85.31
2023-04-06T01:03:43.420Z,84.90
2023-04-06T01:05:59.424Z,84.24
2023-04-06T01:08:15.189Z,83.49
2023-04-06T01:10:31.074Z,83.41
2023-04-06T01:13:04.546Z,84.06
2023-04-06T01:15:28.314Z,83.20
2023-04-06T01:17:36.574Z,82.75
2023-04-06T01:19:54.838Z,83.54
2023-04-06T01:22:08.607Z,83.36
2023-04-06T01:24:28.517Z,83.13
2023-04-06T01:26:57.749Z,83.82
2023-04-06T01:29:08.745Z,84.55
2023-04-06T01:31:17.122Z,84.19
2023-04-06T01:33:29.709Z,84.57
2023-04-06T01:35:47.973Z,84.41
2023-04-06T01:37:59.617Z,84.87
2023-04-06T01:40:17.335Z,85.30
2023-04-06T01:42:31.523Z,86.15
2023-04-06T01:44:39.658Z,86.08
2023-04-06T01:46:52.842Z,86.43
2023-04-06T01:49:01.583Z,85.71
2023-04-06T01:51:15.161Z,86.11
2023-04-06T01:53:34.402Z,86.31
2023-04-06T01:55:49.844Z,87.32
2023-04-06T01:58:05.691Z,87.70
2023-04-06T02:00:20.088Z,87.71
2023-04-06T02:02:34.272Z,88.70
2023-04-06T02:04:46.816Z,89.70
2023-04-06T02:06:56.469Z,90.46
2023-04-06T02:09:07.413Z,90.90
2023-04-06T02:11:18.521Z,90.36
2023-04-06T02:13:30.848Z,90.92
2023-04-06T02:15:39.913Z,90.95
2023-04-06T02:17:48.162Z,91.40
2023-04-06T02:19:56.171Z,92.01
2023-04-06T02:22:04.560Z,92.12
2023-04-06T02:24:14.408Z,92.17
2023-04-06T02:26:25.115Z,93.01
2023-04-06T02:28:33.502Z,93.02
2023-04-06T02:30:43.958Z,92.98
2023-04-06T02:32:52.639Z,92.51
2023-04-06T02:35:01.491Z,92.12
2023-04-06T02:37:11.326Z,92.77
2023-04-06T02:39:19.748Z,92.96
2023-04-06T02:41:30.878Z,92.90
2023-04-06T02:43:40.599Z,93.20
2023-04-06T02:45:56.938Z,93.42
2023-04-06T02:48:07.756Z,93.65
2023-04-06T02:50:16.034Z,93.31
2023-04-06T02:52:32.160Z,92.57
2023-04-06T02:54:40.986Z,92.75
2023-04-06T02:56:51.641Z,92.16
2023-04-06T02:59:01.252Z,91.36
2023-04-06T03:01:12.972Z,90.49
2023-04-06T03:03:22.907Z,90.01
2023-04-06T03:05:31.919Z,90.62
2023-04-06T03:07:40.666Z,90.41
2023-04-06T03:09:53.732Z,90.06
2023-04-06T03:12:05.242Z,90.47
2023-04-06T03:14:23.665Z,91.44
2023-04-06T03:16:31.708Z,92.29
2023-04-06T03:18:42.271Z,92.82
2023-04-06T03:20:51.569Z,94.25
2023-04-06T03:23:01.368Z,95.14
2023-04-06T03:25:13.428Z,95.75
2023-04-06T03:27:27.668Z,96.02
2023-04-06T03:29:36.885Z,95.53
2023-04-06T03:31:46.090Z,94.45
2023-04-06T03:34:14.055Z,94.24
2023-04-06T03:36:22.379Z,93.78
2023-04-06T03:38:30.477Z,94.14
2023-04-06T03:40:38.839Z,94.21
2023-04-06T03:42:49.713Z,95.28
2023-04-06T03:44:58.025Z,96.19
2023-04-06T03:47:06.837Z,96.83
2023-04-06T03:49:15.010Z,97.52
2023-04-06T03:51:27.412Z,99.18
2023-04-06T03:53:43.919Z,99.07
2023-04-06T03:55:53.101Z,99.47
2023-04-06T03:58:03.816Z,100.00
2023-04-06T04:00:13.127Z,100.00
2023-04-06T04:02:21.443Z,100.00
2023-04-06T04:04:30.003Z,100.00
2023-04-06T04:06:40.508Z,100.00
2023-04-06T04:08:49.741Z,100.00
2023-04-06T04:10:58.047Z,100.00
2023-04-06T04:13:08.583Z,99.03
2023-04-06T04:15:19.210Z,99.28
2023-04-06T04:17:28.664Z,100.00
2023-04-06T04:19:39.224Z,100.00
2023-04-06T04:21:48.964Z,100.00
2023-04-06T04:24:02.560Z,100.00
2023-04-06T04:26:10.390Z,100.00
2023-04-06T04:28:20.972Z,100.00
2023-04-06T04:30:29.589Z,100.00
2023-04-06T04:32:37.638Z,100.00
2023-04-06T04:34:47.880Z,100.00
2023-04-06T04:37:06.738Z,100.00
2023-04-06T04:39:26.622Z,100.00
2023-04-06T04:41:42.379Z,100.00
2023-04-06T04:43:56.320Z,100.00
2023-04-06T04:46:08.197Z,100.00
2023-04-06T04:48:22.777Z,100.00
2023-04-06T04:50:39.501Z,100.00
2023-04-06T04:52:47.662Z,100.00
2023-04-06T04:54:59.088Z,100.00
2023-04-06T04:57:10.398Z,100.00
2023-04-06T04:59:24.879Z,100.00
2023-04-06T05:01:53.606Z,100.00
2023-04-06T05:04:06.667Z,100.00
2023-04-06T05:06:15.394Z,100.00
2023-04-06T05:08:27.000Z,100.00
2023-04-06T05:10:35.491Z,100.00
2023-04-06T05:12:44.865Z,100.00
2023-04-06T05:14:55.877Z,100.00
2023-04-06T05:17:05.130Z,100.00
2023-04-06T05:19:14.190Z,100.00
2023-04-06T05:21:27.520Z,100.00
2023-04-06T05:23:42.829Z,100.00
2023-04-06T05:25:51.087Z,100.00
2023-04-06T05:28:03.584Z,99.50
2023-04-06T05:30:19.089Z,92.80
2023-04-06T05:32:29.589Z,89.27
2023-04-06T05:34:38.162Z,88.53
2023-04-06T05:36:47.001Z,89.17
2023-04-06T05:39:02.560Z,89.15
2023-04-06T05:41:25.663Z,89.17
2023-04-06T05:43:34.561Z,87.75
2023-04-06T05:45:49.459Z,88.39
2023-04-06T05:47:58.066Z,89.10
2023-04-06T05:50:11.355Z,89.62
2023-04-06T05:52:20.916Z,90.27
2023-04-06T05:54:30.783Z,90.02
2023-04-06T05:56:42.674Z,87.08
2023-04-06T05:58:53.532Z,82.09
2023-04-06T06:01:11.122Z,80.64
2023-04-06T06:03:55.727Z,75.69
2023-04-06T06:06:08.832Z,68.86
2023-04-06T06:08:27.824Z,58.66
2023-04-06T06:10:37.381Z,53.00
2023-04-06T06:12:49.344Z,52.10
2023-04-06T06:14:59.637Z,48.79
2023-04-06T06:17:13.428Z,45.68
2023-04-06T06:19:22.207Z,44.53
2023-04-06T06:21:34.770Z,41.92
2023-04-06T06:23:43.967Z,42.81
2023-04-06T06:25:59.110Z,40.84
2023-04-06T06:28:08.742Z,38.30
2023-04-06T06:30:18.432Z,36.34
2023-04-06T06:32:30.585Z,37.64
2023-04-06T06:34:38.950Z,36.67
2023-04-06T06:36:50.517Z,37.36
2023-04-06T06:39:01.792Z,36.58
2023-04-06T06:41:09.929Z,38.50
2023-04-06T06:43:19.474Z,37.26
2023-04-06T06:45:39.781Z,36.18
2023-04-06T06:47:52.905Z,34.86
2023-04-06T06:50:04.133Z,33.36
2023-04-06T06:52:12.231Z,35.24
2023-04-06T06:54:20.459Z,34.08
2023-04-06T06:56:29.225Z,34.53
2023-04-06T06:58:37.714Z,34.54
2023-04-06T07:00:45.757Z,32.60
2023-04-06T07:02:56.463Z,32.81
2023-04-06T07:05:16.029Z,34.13
2023-04-06T07:07:33.304Z,36.82
2023-04-06T07:09:41.688Z,35.52
2023-04-06T07:11:49.763Z,35.09
2023-04-06T07:13:57.827Z,34.71
2023-04-06T07:16:05.985Z,33.43
2023-04-06T07:18:16.846Z,32.76
2023-04-06T07:20:25.134Z,34.35
2023-04-06T07:22:33.437Z,35.75
2023-04-06T07:24:41.532Z,38.09
2023-04-06T07:26:49.755Z,35.39
2023-04-06T07:28:59.110Z,34.20
2023-04-06T07:31:07.850Z,35.21
2023-04-06T07:33:19.154Z,36.56
2023-04-06T07:35:29.024Z,35.54
2023-04-06T07:37:37.154Z,38.17
2023-04-06T07:39:45.310Z,39.93
2023-04-06T07:41:53.997Z,42.20
2023-04-06T07:44:02.134Z,43.13
2023-04-06T07:46:10.922Z,44.73
2023-04-06T07:48:21.652Z,43.93
2023-04-06T07:50:29.749Z,46.36
2023-04-06T07:52:38.920Z,47.88
2023-04-06T07:54:50.610Z,48.21
2023-04-06T07:56:58.925Z,50.36
2023-04-06T07:59:07.011Z,54.94
2023-04-06T08:01:15.149Z,52.73
2023-04-06T08:03:26.908Z,55.53
2023-04-06T08:05:35.272Z,57.36
2023-04-06T08:07:43.808Z,55.88
2023-04-06T08:09:51.877Z,55.76
2023-04-06T08:12:03.194Z,56.07
2023-04-06T08:14:11.395Z,56.28
2023-04-06T08:16:19.790Z,55.42
2023-04-06T08:18:31.304Z,54.54
2023-04-06T08:20:39.371Z,54.02
2023-04-06T08:22:47.532Z,52.40
2023-04-06T08:24:55.731Z,52.28
2023-04-06T08:27:04.350Z,52.74
2023-04-06T08:29:12.726Z,53.48
2023-04-06T08:31:22.159Z,51.66
2023-04-06T08:33:32.914Z,49.39
2023-04-06T08:35:41.226Z,48.35
2023-04-06T08:37:49.402Z,49.79
2023-04-06T08:39:57.496Z,49.22
2023-04-06T08:42:06.877Z,48.81
2023-04-06T08:44:15.799Z,49.48
2023-04-06T08:46:30.217Z,48.51
2023-04-06T08:48:42.349Z,49.37
2023-04-06T08:50:51.522Z,48.79
2023-04-06T08:53:00.049Z,49.86
2023-04-06T08:55:09.235Z,48.31
2023-04-06T08:57:18.261Z,49.62
2023-04-06T08:59:27.937Z,49.73
2023-04-06T09:01:43.028Z,48.88
2023-04-06T09:03:55.401Z,49.42
2023-04-06T09:06:03.841Z,50.70
2023-04-06T09:08:12.484Z,50.69
2023-04-06T09:10:21.814Z,49.93
2023-04-06T09:12:31.329Z,49.58
2023-04-06T09:14:40.989Z,50.44
2023-04-06T09:16:51.089Z,47.87
2023-04-06T09:19:08.698Z,48.42
2023-04-06T09:21:17.435Z,49.88
2023-04-06T09:23:25.574Z,45.94
2023-04-06T09:25:34.007Z,45.15
2023-04-06T09:27:43.329Z,43.56
2023-04-06T09:29:53.383Z,44.91
2023-04-06T09:32:07.857Z,45.41
2023-04-06T09:34:25.077Z,43.97
2023-04-06T09:36:39.659Z,41.25
2023-04-06T09:38:58.513Z,40.75
2023-04-06T09:41:06.798Z,39.91
2023-04-06T09:43:14.893Z,36.32
2023-04-06T09:45:23.240Z,36.12
2023-04-06T09:47:31.764Z,34.11
2023-04-06T09:49:42.858Z,31.25
2023-04-06T09:51:57.609Z,29.39
2023-04-06T09:54:07.185Z,29.91
2023-04-06T09:56:21.670Z,29.44
2023-04-06T09:58:30.731Z,30.29
2023-04-06T10:00:46.360Z,31.34
2023-04-06T10:03:00.831Z,30.60
2023-04-06T10:05:17.151Z,31.32
2023-04-06T10:07:25.905Z,30.30
2023-04-06T10:09:37.245Z,28.99
2023-04-06T10:11:46.420Z,27.75
2023-04-06T10:13:54.878Z,27.99
2023-04-06T10:16:04.469Z,26.44
2023-04-06T10:18:13.379Z,26.81
2023-04-06T10:20:28.253Z,26.83
2023-04-06T10:22:43.389Z,30.25
2023-04-06T10:24:51.385Z,28.94
2023-04-06T10:27:02.738Z,28.23
2023-04-06T10:29:11.559Z,25.81
2023-04-06T10:31:28.592Z,26.66
2023-04-06T10:33:37.078Z,28.41
2023-04-06T10:35:48.494Z,30.27
2023-04-06T10:38:04.157Z,29.56
2023-04-06T10:40:22.492Z,29.59
2023-04-06T10:42:41.409Z,29.79
2023-04-06T10:44:50.436Z,28.90
2023-04-06T10:47:01.738Z,30.78
2023-04-06T10:49:16.700Z,28.83
2023-04-06T10:51:30.267Z,29.94
2023-04-06T10:53:38.602Z,28.90
2023-04-06T10:55:48.935Z,27.28
2023-04-06T10:57:56.952Z,27.06
2023-04-06T11:00:05.277Z,28.83
2023-04-06T11:02:23.824Z,30.85
2023-04-06T11:04:32.294Z,32.38
2023-04-06T11:06:43.207Z,30.79
2023-04-06T11:08:52.893Z,30.89
2023-04-06T11:11:11.680Z,31.04
2023-04-06T11:13:20.143Z,31.35
2023-04-06T11:15:28.727Z,30.03
2023-04-06T11:17:40.224Z,30.78
2023-04-06T11:19:48.341Z,31.92
2023-04-06T11:21:59.935Z,29.94
2023-04-06T11:24:10.321Z,31.36
2023-04-06T11:26:19.052Z,32.55
2023-04-06T11:28:27.106Z,33.38
2023-04-06T11:30:35.588Z,33.12
2023-04-06T11:32:45.557Z,31.09
2023-04-06T11:34:53.880Z,32.83
2023-04-06T11:37:07.257Z,31.13
2023-04-06T11:39:15.982Z,31.36
2023-04-06T11:41:31.176Z,31.62
2023-04-06T11:43:39.384Z,29.75
2023-04-06T11:45:47.748Z,29.32
2023-04-06T11:48:05.883Z,31.12
2023-04-06T11:50:16.177Z,28.76
2023-04-06T11:52:28.162Z,28.07
2023-04-06T11:54:38.095Z,26.49
2023-04-06T11:56:46.567Z,30.76
2023-04-06T11:58:54.654Z,28.53
2023-04-06T12:01:07.737Z,28.42
2023-04-06T12:03:16.042Z,31.38
2023-04-06T12:05:25.143Z,29.07
2023-04-06T12:07:36.468Z,28.49
2023-04-06T12:09:44.493Z,30.28
2023-04-06T12:11:52.510Z,30.43
2023-04-06T12:14:02.751Z,28.21
2023-04-06T12:16:11.107Z,28.55
2023-04-06T12:18:19.804Z,28.81
2023-04-06T12:20:27.909Z,30.64
2023-04-06T12:22:38.877Z,29.01
2023-04-06T12:24:46.949Z,27.53
2023-04-06T12:27:08.567Z,27.87
2023-04-06T12:29:18.036Z,27.30
2023-04-06T12:31:27.276Z,29.23
2023-04-06T12:33:35.610Z,27.51
2023-04-06T12:35:43.745Z,27.11
2023-04-06T12:37:54.828Z,27.41
2023-04-06T12:40:05.699Z,26.66
2023-04-06T12:42:14.999Z,25.66
2023-04-06T12:44:24.759Z,26.29
2023-04-06T12:46:34.933Z,28.19
2023-04-06T12:48:43.029Z,27.33
2023-04-06T12:50:58.949Z,28.31
2023-04-06T12:53:09.676Z,27.21
2023-04-06T12:55:17.949Z,26.05
2023-04-06T12:57:26.761Z,25.54
2023-04-06T12:59:36.719Z,24.74
2023-04-06T13:01:45.491Z,25.49
2023-04-06T13:03:53.804Z,25.68
2023-04-06T13:06:04.154Z,25.69
2023-04-06T13:08:14.900Z,25.76
2023-04-06T13:10:22.885Z,26.59
2023-04-06T13:12:31.387Z,26.73
2023-04-06T13:14:40.513Z,25.46
2023-04-06T13:16:48.738Z,24.83
2023-04-06T13:18:57.050Z,26.63
2023-04-06T13:21:05.147Z,25.27
2023-04-06T13:23:15.939Z,24.37
2023-04-06T13:25:24.371Z,24.63
2023-04-06T13:27:35.153Z,24.64
2023-04-06T13:29:43.368Z,25.55
2023-04-06T13:31:51.605Z,27.33
2023-04-06T13:33:59.844Z,27.99
2023-04-06T13:36:10.248Z,25.67
2023-04-06T13:38:21.631Z,27.31
2023-04-06T13:40:29.848Z,28.33
2023-04-06T13:42:39.086Z,27.84
2023-04-06T13:44:48.018Z,26.73
2023-04-06T13:46:56.382Z,26.71
2023-04-06T13:49:04.488Z,28.12
2023-04-06T13:51:13.512Z,27.21
2023-04-06T13:53:24.248Z,28.36
2023-04-06T13:55:32.551Z,27.32
2023-04-06T13:57:40.521Z,27.56
2023-04-06T13:59:49.125Z,27.27
2023-04-06T14:01:57.209Z,26.24
2023-04-06T14:04:05.692Z,27.03
2023-04-06T14:06:29.756Z,27.39
2023-04-06T14:08:42.333Z,27.60
2023-04-06T14:10:50.193Z,26.97
2023-04-06T14:12:59.295Z,27.32
2023-04-06T14:15:07.953Z,27.02
2023-04-06T14:17:16.006Z,26.81
2023-04-06T14:19:24.336Z,28.08
2023-04-06T14:21:32.620Z,27.07
2023-04-06T14:23:43.469Z,26.99
2023-04-06T14:25:52.561Z,28.76
2023-04-06T14:28:02.625Z,26.86
2023-04-06T14:30:12.250Z,26.53
2023-04-06T14:32:20.377Z,27.01
2023-04-06T14:34:28.259Z,28.22
2023-04-06T14:36:39.467Z,26.29
2023-04-06T14:38:50.222Z,26.78
2023-04-06T14:40:58.024Z,26.94
2023-04-06T14:43:06.074Z,25.86
2023-04-06T14:45:14.742Z,27.26
2023-04-06T14:47:23.019Z,28.10
2023-04-06T14:49:30.973Z,28.46
2023-04-06T14:51:40.187Z,26.76
2023-04-06T14:53:51.152Z,25.68
2023-04-06T14:56:00.040Z,26.61
2023-04-06T14:58:08.161Z,26.30
2023-04-06T15:00:17.601Z,26.22
2023-04-06T15:02:25.704Z,25.87
2023-04-06T15:04:34.031Z,28.06
2023-04-06T15:06:42.214Z,28.73
2023-04-06T15:08:53.344Z,27.77
2023-04-06T15:11:03.753Z,28.53
2023-04-06T15:13:12.364Z,28.86
2023-04-06T15:15:20.692Z,25.94
2023-04-06T15:17:29.555Z,28.11
2023-04-06T15:19:37.743Z,27.90
2023-04-06T15:21:45.811Z,28.96
2023-04-06T15:23:56.760Z,29.90
2023-04-06T15:26:05.203Z,29.13
2023-04-06T15:28:13.173Z,27.76
2023-04-06T15:30:21.473Z,26.90
2023-04-06T15:32:29.824Z,27.05
2023-04-06T15:34:37.817Z,27.10
2023-04-06T15:36:46.970Z,29.03
2023-04-06T15:38:57.678Z,29.53
2023-04-06T15:41:06.479Z,28.56
2023-04-06T15:43:14.962Z,28.54
2023-04-06T15:45:23.145Z,28.62
2023-04-06T15:47:31.203Z,28.58
2023-04-06T15:49:39.152Z,29.13
2023-04-06T15:51:47.470Z,31.57
2023-04-06T15:53:58.835Z,30.46
2023-04-06T15:56:08.786Z,30.90
2023-04-06T15:58:16.805Z,29.71
2023-04-06T16:00:25.762Z,31.01
2023-04-06T16:02:33.931Z,30.19
2023-04-06T16:04:42.075Z,28.27
2023-04-06T16:06:50.822Z,28.80
2023-04-06T16:09:01.533Z,31.55
2023-04-06T16:11:09.562Z,29.27
2023-04-06T16:13:17.557Z,29.35
2023-04-06T16:15:25.761Z,29.43
2023-04-06T16:17:33.699Z,30.98
2023-04-06T16:19:42.350Z,29.63
2023-04-06T16:21:50.501Z,29.32
2023-04-06T16:24:01.204Z,30.06
2023-04-06T16:26:15.251Z,31.47
2023-04-06T16:28:24.321Z,29.81
2023-04-06T16:30:32.724Z,31.27
2023-04-06T16:32:40.736Z,32.58
2023-04-06T16:34:50.199Z,32.27
2023-04-06T16:36:59.660Z,33.55
2023-04-06T16:39:11.412Z,32.96
2023-04-06T16:41:19.378Z,32.20
2023-04-06T16:43:27.713Z,33.38
2023-04-06T16:45:36.109Z,35.26
2023-04-06T16:47:44.037Z,32.54
2023-04-06T16:49:52.214Z,32.48
2023-04-06T16:52:03.113Z,33.89
2023-04-06T16:54:13.881Z,32.76
2023-04-06T16:56:22.046Z,35.04
2023-04-06T16:58:30.236Z,33.72
2023-04-06T17:00:40.900Z,32.76
2023-04-06T17:02:50.652Z,35.02
2023-04-06T17:04:58.793Z,34.97
2023-04-06T17:07:07.014Z,34.85
2023-04-06T17:09:17.712Z,34.13
2023-04-06T17:11:31.633Z,34.23
2023-04-06T17:13:44.382Z,35.13
2023-04-06T17:15:52.418Z,35.31
2023-04-06T17:18:00.722Z,35.19
2023-04-06T17:20:10.343Z,36.94
2023-04-06T17:22:21.161Z,36.91
2023-04-06T17:24:31.967Z,36.03
2023-04-06T17:26:41.312Z,37.58
2023-04-06T17:28:49.497Z,37.10
2023-04-06T17:30:57.872Z,38.17
2023-04-06T17:33:06.044Z,38.28
2023-04-06T17:35:14.454Z,37.93
2023-04-06T17:37:22.686Z,38.40
2023-04-06T17:39:33.208Z,39.63
2023-04-06T17:41:42.145Z,39.46
2023-04-06T17:43:51.532Z,39.84
2023-04-06T17:45:59.536Z,40.47
2023-04-06T17:48:07.885Z,41.10
2023-04-06T17:50:16.549Z,41.20
2023-04-06T17:52:24.523Z,41.31
2023-04-06T17:54:36.381Z,40.17
2023-04-06T17:56:44.629Z,39.63
2023-04-06T17:58:52.808Z,39.12
2023-04-06T18:01:00.780Z,39.42
2023-04-06T18:03:09.068Z,38.56
2023-04-06T18:05:16.978Z,38.56
2023-04-06T18:07:25.029Z,39.34
2023-04-06T18:09:37.268Z,39.55
2023-04-06T18:11:45.614Z,39.83
2023-04-06T18:13:53.667Z,39.39
2023-04-06T18:16:04.126Z,39.39
2023-04-06T18:18:12.065Z,39.80
2023-04-06T18:20:20.841Z,39.27
2023-04-06T18:22:28.825Z,40.11
2023-04-06T18:24:42.589Z,39.84
2023-04-06T18:26:52.471Z,40.45
2023-04-06T18:29:00.416Z,40.57
2023-04-06T18:31:08.473Z,40.27
2023-04-06T18:33:16.536Z,41.04
2023-04-06T18:35:24.363Z,40.75
2023-04-06T18:37:32.683Z,41.36
2023-04-06T18:39:47.144Z,41.85
2023-04-06T18:41:55.247Z,41.76
2023-04-06T18:44:03.470Z,41.11
2023-04-06T18:46:14.923Z,41.16
2023-04-06T18:48:22.858Z,42.27
2023-04-06T18:50:31.579Z,41.66
2023-04-06T18:52:40.039Z,42.53
2023-04-06T18:54:50.997Z,43.14
2023-04-06T18:57:08.129Z,43.13
2023-04-06T18:59:21.296Z,42.94
2023-04-06T19:01:32.119Z,43.30
2023-04-06T19:03:41.046Z,43.40
2023-04-06T19:05:49.475Z,43.59
2023-04-06T19:07:57.420Z,44.54
2023-04-06T19:10:09.639Z,43.05
2023-04-06T19:12:17.579Z,43.68
2023-04-06T19:14:25.651Z,43.74
2023-04-06T19:16:33.743Z,43.88
2023-04-06T19:18:43.572Z,43.13
2023-04-06T19:20:51.981Z,43.98
2023-04-06T19:23:00.633Z,43.31
2023-04-06T19:25:12.316Z,43.65
2023-04-06T19:27:20.144Z,45.10
2023-04-06T19:29:28.525Z,44.57
2023-04-06T19:31:37.046Z,44.33
2023-04-06T19:33:45.583Z,43.83
2023-04-06T19:35:53.477Z,43.69
2023-04-06T19:38:01.501Z,44.01
2023-04-06T19:40:13.371Z,44.06
2023-04-06T19:42:22.263Z,44.33
2023-04-06T19:44:30.176Z,44.01
2023-04-06T19:46:38.248Z,43.97
2023-04-06T19:48:46.193Z,43.98
2023-04-06T19:50:56.755Z,44.50
2023-04-06T19:53:04.756Z,44.55
2023-04-06T19:55:15.466Z,44.75
2023-04-06T19:57:23.462Z,44.96
2023-04-06T19:59:32.144Z,44.75
2023-04-06T20:01:40.188Z,45.98
2023-04-06T20:03:48.409Z,46.19
2023-04-06T20:05:56.834Z,47.06
2023-04-06T20:08:04.883Z,47.28
2023-04-06T20:10:15.950Z,47.88
2023-04-06T20:12:23.961Z,47.71
2023-04-06T20:14:32.392Z,47.15
2023-04-06T20:16:40.317Z,47.55
2023-04-06T20:18:48.214Z,48.00
2023-04-06T20:20:56.907Z,47.92
2023-04-06T20:23:04.835Z,48.57
2023-04-06T20:25:15.856Z,48.62
2023-04-06T20:27:26.425Z,49.43
2023-04-06T20:29:34.549Z,48.85
2023-04-06T20:31:42.442Z,50.05
2023-04-06T20:33:55.654Z,50.04
2023-04-06T20:36:04.335Z,49.82
2023-04-06T20:38:12.153Z,50.55
2023-04-06T20:40:23.847Z,51.21
2023-04-06T20:42:31.917Z,50.90
2023-04-06T20:44:40.074Z,51.69
2023-04-06T20:46:48.688Z,52.24
2023-04-06T20:48:59.733Z,52.98
2023-04-06T20:51:09.521Z,54.15
2023-04-06T20:53:17.524Z,55.05
2023-04-06T20:55:28.110Z,56.05
2023-04-06T20:57:36.130Z,56.44
2023-04-06T20:59:45.317Z,57.60
2023-04-06T21:01:53.215Z,58.41
2023-04-06T21:04:02.667Z,59.54
2023-04-06T21:06:12.557Z,60.94
2023-04-06T21:08:20.558Z,60.75
2023-04-06T21:10:31.471Z,61.86
2023-04-06T21:12:39.479Z,62.31
2023-04-06T21:14:47.572Z,61.82
2023-04-06T21:16:56.298Z,62.70
2023-04-06T21:19:04.337Z,64.07
2023-04-06T21:21:12.369Z,63.28
2023-04-06T21:23:20.240Z,63.23
2023-04-06T21:25:30.823Z,63.62
2023-04-06T21:27:38.959Z,64.62
2023-04-06T21:29:47.037Z,65.78
2023-04-06T21:31:55.997Z,65.88
2023-04-06T21:34:04.273Z,67.43
2023-04-06T21:36:12.575Z,69.13
2023-04-06T21:38:20.733Z,70.13
2023-04-06T21:40:31.419Z,71.24
2023-04-06T21:42:39.550Z,73.19
2023-04-06T21:44:50.080Z,74.33
2023-04-06T21:46:58.798Z,76.06
2023-04-06T21:49:07.214Z,78.03
2023-04-06T21:51:20.292Z,78.79
2023-04-06T21:53:31.926Z,80.41
2023-04-06T21:55:45.908Z,83.24
2023-04-06T21:57:53.886Z,83.75
2023-04-06T22:00:02.046Z,85.93
2023-04-06T22:02:10.163Z,86.67
2023-04-06T22:04:18.754Z,87.13
2023-04-06T22:06:27.360Z,89.58
2023-04-06T22:08:35.750Z,91.15
2023-04-06T22:10:46.343Z,92.41
2023-04-06T22:12:54.336Z,92.96
2023-04-06T22:15:02.132Z,94.85
2023-04-06T22:17:10.023Z,97.21
2023-04-06T22:19:18.128Z,98.46
2023-04-06T22:21:26.287Z,100.00
2023-04-06T22:23:35.079Z,100.00
2023-04-06T22:25:45.715Z,100.00
2023-04-06T22:27:53.682Z,100.00
2023-04-06T22:30:04.551Z,100.00
2023-04-06T22:32:12.468Z,100.00
2023-04-06T22:34:20.339Z,100.00
2023-04-06T22:36:28.311Z,100.00
2023-04-06T22:38:37.193Z,100.00
2023-04-06T22:40:47.688Z,100.00
2023-04-06T22:42:55.862Z,100.00
2023-04-06T22:45:03.775Z,100.00
2023-04-06T22:47:12.895Z,100.00
2023-04-06T22:49:20.826Z,100.00
2023-04-06T22:51:28.802Z,100.00
2023-04-06T22:53:36.902Z,100.00
2023-04-06T22:55:47.600Z,100.00
2023-04-06T22:57:55.761Z,100.00
2023-04-06T23:00:05.777Z,100.00
2023-04-06T23:02:14.422Z,100.00
2023-04-06T23:04:22.501Z,100.00
2023-04-06T23:06:30.482Z,100.00
2023-04-06T23:08:38.368Z,100.00
2023-04-06T23:10:50.026Z,100.00
2023-04-06T23:12:57.933Z,100.00
2023-04-06T23:15:05.870Z,100.00
2023-04-06T23:17:16.218Z,100.00
2023-04-06T23:19:24.337Z,100.00
2023-04-06T23:21:33.246Z,100.00
2023-04-06T23:23:41.617Z,100.00
2023-04-06T23:25:52.956Z,100.00
2023-04-06T23:28:02.184Z,100.00
2023-04-06T23:30:12.234Z,100.00
2023-04-06T23:32:20.416Z,100.00
2023-04-06T23:34:29.778Z,100.00
2023-04-06T23:36:38.005Z,100.00
2023-04-06T23:38:46.517Z,100.00
2023-04-06T23:40:57.626Z,100.00
2023-04-06T23:43:05.764Z,100.00
2023-04-06T23:45:14.103Z,100.00
2023-04-06T23:47:22.784Z,100.00
2023-04-06T23:49:32.104Z,100.00
2023-04-06T23:51:39.979Z,100.00
2023-04-06T23:53:47.845Z,100.00
2023-04-06T23:56:00.405Z,100.00
2023-04-06T23:58:08.288Z,100.00
